Terminal Aerodrome Forecast
Issued by NWS

Home | Current Version | Previous Version | Text Only | Print | Product List | Glossary On
Versions: 1 2 3 4 5 6 7 8 9 10 11 12 13 14
000
FTPQ31 PGUM 240202 AAG
TAFTRO
TAF AMD
PTRO 240202Z 2402/2424 07012G18KT P6SM VCSH SCT015 BKN120
      TEMPO 2402/2406 4SM SHRA OVC015=

USA.gov is the U.S. government's official web portal to all federal, state and local government web resources and services.